sensor_id;sensor_type;location;lat;lon;timestamp;pressure;altitude;pressure_sealevel;temperature;humidity
66176;BME280;52977;44.816;20.538;2023-01-28T00:01:25;99598.13;;;1.13;100.00
66176;BME280;52977;44.816;20.538;2023-01-28T00:03:51;99618.63;;;1.30;100.00
66176;BME280;52977;44.816;20.538;2023-01-28T00:06:17;99542.84;;;0.80;100.00
66176;BME280;52977;44.816;20.538;2023-01-28T00:08:44;99619.13;;;1.27;100.00
66176;BME280;52977;44.816;20.538;2023-01-28T00:11:11;99607.28;;;1.23;100.00
66176;BME280;52977;44.816;20.538;2023-01-28T00:13:39;99558.91;;;0.64;100.00
66176;BME280;52977;44.816;20.538;2023-01-28T00:16:07;99605.78;;;0.89;100.00
66176;BME280;52977;44.816;20.538;2023-01-28T00:18:35;99592.41;;;1.05;100.00
66176;BME280;52977;44.816;20.538;2023-01-28T00:21:04;99615.63;;;1.21;100.00
66176;BME280;52977;44.816;20.538;2023-01-28T00:23:32;99508.06;;;0.58;100.00
66176;BME280;52977;44.816;20.538;2023-01-28T00:26:09;99612.47;;;1.40;100.00
66176;BME280;52977;44.816;20.538;2023-01-28T00:28:40;99611.63;;;1.34;100.00
66176;BME280;52977;44.816;20.538;2023-01-28T00:31:08;99615.69;;;1.31;100.00
66176;BME280;52977;44.816;20.538;2023-01-28T00:33:36;99615.38;;;1.28;100.00
66176;BME280;52977;44.816;20.538;2023-01-28T00:36:03;99614.75;;;1.10;100.00
66176;BME280;52977;44.816;20.538;2023-01-28T00:38:31;99586.91;;;0.79;100.00
66176;BME280;52977;44.816;20.538;2023-01-28T00:41:12;99623.56;;;1.00;100.00
66176;BME280;52977;44.816;20.538;2023-01-28T00:43:40;99619.63;;;1.18;100.00
66176;BME280;52977;44.816;20.538;2023-01-28T00:46:08;99614.28;;;1.24;100.00
66176;BME280;52977;44.816;20.538;2023-01-28T00:48:37;99624.25;;;1.28;100.00
66176;BME280;52977;44.816;20.538;2023-01-28T00:51:05;99609.13;;;1.12;100.00
66176;BME280;52977;44.816;20.538;2023-01-28T00:53:32;99626.00;;;0.97;100.00
66176;BME280;52977;44.816;20.538;2023-01-28T00:55:59;99565.63;;;0.72;100.00
66176;BME280;52977;44.816;20.538;2023-01-28T00:58:25;99620.75;;;1.28;100.00
66176;BME280;52977;44.816;20.538;2023-01-28T01:00:52;99597.50;;;1.01;100.00
66176;BME280;52977;44.816;20.538;2023-01-28T01:03:18;99578.63;;;0.85;100.00
66176;BME280;52977;44.816;20.538;2023-01-28T01:05:45;99637.16;;;1.26;100.00
66176;BME280;52977;44.816;20.538;2023-01-28T01:08:11;99580.00;;;0.88;100.00
66176;BME280;52977;44.816;20.538;2023-01-28T01:10:38;99622.06;;;1.15;100.00
66176;BME280;52977;44.816;20.538;2023-01-28T01:13:05;99621.75;;;1.06;100.00
66176;BME280;52977;44.816;20.538;2023-01-28T01:15:33;99536.03;;;0.62;100.00
66176;BME280;52977;44.816;20.538;2023-01-28T01:17:59;99618.53;;;1.09;100.00
66176;BME280;52977;44.816;20.538;2023-01-28T01:20:27;99593.66;;;0.81;100.00
66176;BME280;52977;44.816;20.538;2023-01-28T01:22:55;99621.97;;;1.05;100.00
66176;BME280;52977;44.816;20.538;2023-01-28T01:25:21;99603.16;;;1.05;100.00
66176;BME280;52977;44.816;20.538;2023-01-28T01:27:49;99570.84;;;0.89;100.00
66176;BME280;52977;44.816;20.538;2023-01-28T01:30:16;99634.78;;;1.35;100.00
66176;BME280;52977;44.816;20.538;2023-01-28T01:32:42;99588.34;;;0.97;100.00
66176;BME280;52977;44.816;20.538;2023-01-28T01:35:09;99619.31;;;1.10;100.00
66176;BME280;52977;44.816;20.538;2023-01-28T01:37:37;99628.22;;;1.15;100.00
66176;BME280;52977;44.816;20.538;2023-01-28T01:40:03;99587.00;;;0.94;100.00
66176;BME280;52977;44.816;20.538;2023-01-28T01:42:32;99650.84;;;1.19;100.00
66176;BME280;52977;44.816;20.538;2023-01-28T01:45:11;99634.78;;;1.30;100.00
66176;BME280;52977;44.816;20.538;2023-01-28T01:50:50;99569.94;;;0.73;100.00
66176;BME280;52977;44.816;20.538;2023-01-28T01:53:21;99638.78;;;1.27;100.00
66176;BME280;52977;44.816;20.538;2023-01-28T01:55:51;99639.59;;;1.28;100.00
66176;BME280;52977;44.816;20.538;2023-01-28T01:58:20;99641.75;;;1.26;100.00
66176;BME280;52977;44.816;20.538;2023-01-28T02:00:48;99601.06;;;1.12;100.00
66176;BME280;52977;44.816;20.538;2023-01-28T02:03:18;99593.69;;;0.87;100.00
66176;BME280;52977;44.816;20.538;2023-01-28T02:05:48;99640.66;;;1.27;100.00
66176;BME280;52977;44.816;20.538;2023-01-28T02:08:14;99652.25;;;1.32;100.00
66176;BME280;52977;44.816;20.538;2023-01-28T02:10:59;99649.88;;;0.93;100.00
66176;BME280;52977;44.816;20.538;2023-01-28T02:13:29;99627.34;;;0.99;100.00
66176;BME280;52977;44.816;20.538;2023-01-28T02:15:59;99646.53;;;1.18;100.00
66176;BME280;52977;44.816;20.538;2023-01-28T02:18:26;99631.41;;;1.07;100.00
66176;BME280;52977;44.816;20.538;2023-01-28T02:26:41;99654.66;;;1.29;100.00
66176;BME280;52977;44.816;20.538;2023-01-28T02:29:36;99654.09;;;1.22;100.00
66176;BME280;52977;44.816;20.538;2023-01-28T02:37:45;99653.63;;;1.40;100.00
66176;BME280;52977;44.816;20.538;2023-01-28T02:40:17;99608.31;;;1.06;100.00
66176;BME280;52977;44.816;20.538;2023-01-28T02:42:44;99599.38;;;1.00;100.00
66176;BME280;52977;44.816;20.538;2023-01-28T02:45:17;99661.09;;;1.28;100.00
66176;BME280;52977;44.816;20.538;2023-01-28T02:47:45;99645.75;;;1.23;100.00
66176;BME280;52977;44.816;20.538;2023-01-28T02:53:30;99656.09;;;0.99;100.00
66176;BME280;52977;44.816;20.538;2023-01-28T02:59:02;99657.53;;;1.17;100.00
66176;BME280;52977;44.816;20.538;2023-01-28T03:01:55;99612.47;;;0.81;100.00
66176;BME280;52977;44.816;20.538;2023-01-28T03:04:32;99615.41;;;0.85;100.00
66176;BME280;52977;44.816;20.538;2023-01-28T03:07:02;99592.19;;;0.63;100.00
66176;BME280;52977;44.816;20.538;2023-01-28T03:09:30;99600.88;;;0.81;100.00
66176;BME280;52977;44.816;20.538;2023-01-28T03:15:11;99655.38;;;1.14;100.00
66176;BME280;52977;44.816;20.538;2023-01-28T03:18:15;99653.78;;;1.18;100.00
66176;BME280;52977;44.816;20.538;2023-01-28T03:21:13;99651.72;;;1.30;100.00
66176;BME280;52977;44.816;20.538;2023-01-28T03:24:04;99649.88;;;1.41;100.00
66176;BME280;52977;44.816;20.538;2023-01-28T03:26:59;99657.63;;;1.27;100.00
66176;BME280;52977;44.816;20.538;2023-01-28T03:29:53;99652.66;;;1.04;100.00
66176;BME280;52977;44.816;20.538;2023-01-28T03:32:41;99656.47;;;1.18;100.00
66176;BME280;52977;44.816;20.538;2023-01-28T03:35:29;99654.94;;;1.27;100.00
66176;BME280;52977;44.816;20.538;2023-01-28T03:38:15;99657.56;;;1.22;100.00
66176;BME280;52977;44.816;20.538;2023-01-28T03:40:58;99649.78;;;1.21;100.00
66176;BME280;52977;44.816;20.538;2023-01-28T03:43:30;99620.91;;;1.06;100.00
66176;BME280;52977;44.816;20.538;2023-01-28T03:45:56;99646.28;;;1.20;100.00
66176;BME280;52977;44.816;20.538;2023-01-28T03:48:24;99598.41;;;0.69;100.00
66176;BME280;52977;44.816;20.538;2023-01-28T03:50:53;99576.06;;;0.63;100.00
66176;BME280;52977;44.816;20.538;2023-01-28T03:53:21;99606.06;;;0.93;100.00
66176;BME280;52977;44.816;20.538;2023-01-28T03:55:50;99654.59;;;1.13;100.00
66176;BME280;52977;44.816;20.538;2023-01-28T03:58:17;99653.19;;;1.06;100.00
66176;BME280;52977;44.816;20.538;2023-01-28T04:00:45;99659.97;;;1.13;100.00
66176;BME280;52977;44.816;20.538;2023-01-28T04:03:14;99653.47;;;1.09;100.00
66176;BME280;52977;44.816;20.538;2023-01-28T04:05:57;99606.50;;;0.74;100.00
66176;BME280;52977;44.816;20.538;2023-01-28T04:08:25;99655.28;;;0.98;100.00
66176;BME280;52977;44.816;20.538;2023-01-28T04:11:25;99663.72;;;1.12;100.00
66176;BME280;52977;44.816;20.538;2023-01-28T04:13:51;99661.91;;;1.23;100.00
66176;BME280;52977;44.816;20.538;2023-01-28T04:16:18;99670.53;;;1.30;100.00
66176;BME280;52977;44.816;20.538;2023-01-28T04:18:45;99645.19;;;1.21;100.00
66176;BME280;52977;44.816;20.538;2023-01-28T04:21:12;99667.34;;;1.44;100.00
66176;BME280;52977;44.816;20.538;2023-01-28T04:23:38;99677.88;;;1.45;100.00
66176;BME280;52977;44.816;20.538;2023-01-28T04:26:05;99632.25;;;1.13;100.00
66176;BME280;52977;44.816;20.538;2023-01-28T04:28:31;99684.22;;;1.24;100.00
66176;BME280;52977;44.816;20.538;2023-01-28T04:30:57;99676.94;;;1.19;100.00
66176;BME280;52977;44.816;20.538;2023-01-28T04:33:52;99618.59;;;0.72;100.00
66176;BME280;52977;44.816;20.538;2023-01-28T04:36:41;99700.38;;;1.29;100.00
66176;BME280;52977;44.816;20.538;2023-01-28T04:39:22;99618.53;;;0.66;100.00
66176;BME280;52977;44.816;20.538;2023-01-28T04:42:07;99684.66;;;1.10;100.00
66176;BME280;52977;44.816;20.538;2023-01-28T04:45:12;99684.41;;;1.12;100.00
66176;BME280;52977;44.816;20.538;2023-01-28T04:47:58;99694.38;;;1.16;100.00
66176;BME280;52977;44.816;20.538;2023-01-28T04:50:44;99694.34;;;1.11;100.00
66176;BME280;52977;44.816;20.538;2023-01-28T04:53:17;99651.72;;;0.88;100.00
66176;BME280;52977;44.816;20.538;2023-01-28T04:56:06;99690.53;;;1.02;100.00
66176;BME280;52977;44.816;20.538;2023-01-28T04:58:34;99705.69;;;1.18;100.00
66176;BME280;52977;44.816;20.538;2023-01-28T05:01:04;99669.53;;;0.99;100.00
66176;BME280;52977;44.816;20.538;2023-01-28T05:03:31;99697.91;;;1.22;100.00
66176;BME280;52977;44.816;20.538;2023-01-28T05:05:59;99681.16;;;1.10;100.00
66176;BME280;52977;44.816;20.538;2023-01-28T05:08:42;99706.28;;;1.31;100.00
66176;BME280;52977;44.816;20.538;2023-01-28T05:11:08;99656.88;;;0.94;100.00
66176;BME280;52977;44.816;20.538;2023-01-28T05:13:34;99683.97;;;0.88;100.00
66176;BME280;52977;44.816;20.538;2023-01-28T05:16:02;99702.44;;;1.16;100.00
66176;BME280;52977;44.816;20.538;2023-01-28T05:18:28;99708.09;;;1.15;100.00
66176;BME280;52977;44.816;20.538;2023-01-28T05:21:08;99708.31;;;1.08;100.00
66176;BME280;52977;44.816;20.538;2023-01-28T05:23:37;99706.78;;;1.17;100.00
66176;BME280;52977;44.816;20.538;2023-01-28T05:26:03;99699.72;;;1.11;100.00
66176;BME280;52977;44.816;20.538;2023-01-28T05:28:29;99632.72;;;0.57;100.00
66176;BME280;52977;44.816;20.538;2023-01-28T05:30:56;99701.03;;;1.09;100.00
66176;BME280;52977;44.816;20.538;2023-01-28T05:33:22;99712.66;;;1.14;100.00
66176;BME280;52977;44.816;20.538;2023-01-28T05:35:48;99644.56;;;0.61;100.00
66176;BME280;52977;44.816;20.538;2023-01-28T05:38:18;99711.22;;;0.96;100.00
66176;BME280;52977;44.816;20.538;2023-01-28T05:40:46;99691.28;;;0.92;100.00
66176;BME280;52977;44.816;20.538;2023-01-28T05:43:12;99721.81;;;0.81;100.00
66176;BME280;52977;44.816;20.538;2023-01-28T05:46:03;99663.44;;;0.71;100.00
66176;BME280;52977;44.816;20.538;2023-01-28T05:48:50;99663.69;;;0.70;100.00
66176;BME280;52977;44.816;20.538;2023-01-28T05:51:42;99717.75;;;0.73;100.00
66176;BME280;52977;44.816;20.538;2023-01-28T05:54:10;99738.25;;;0.84;100.00
66176;BME280;52977;44.816;20.538;2023-01-28T05:56:36;99736.84;;;0.77;100.00
66176;BME280;52977;44.816;20.538;2023-01-28T05:59:03;99720.97;;;0.75;100.00
66176;BME280;52977;44.816;20.538;2023-01-28T06:01:30;99741.00;;;0.95;100.00
66176;BME280;52977;44.816;20.538;2023-01-28T06:03:57;99735.34;;;0.91;100.00
66176;BME280;52977;44.816;20.538;2023-01-28T06:06:27;99723.06;;;0.68;100.00
66176;BME280;52977;44.816;20.538;2023-01-28T06:08:53;99716.94;;;0.73;100.00
66176;BME280;52977;44.816;20.538;2023-01-28T06:11:24;99755.91;;;1.08;100.00
66176;BME280;52977;44.816;20.538;2023-01-28T06:13:53;99723.22;;;0.89;100.00
66176;BME280;52977;44.816;20.538;2023-01-28T06:16:30;99757.44;;;0.98;100.00
66176;BME280;52977;44.816;20.538;2023-01-28T06:19:02;99735.03;;;0.82;100.00
66176;BME280;52977;44.816;20.538;2023-01-28T06:21:29;99740.34;;;0.77;100.00
66176;BME280;52977;44.816;20.538;2023-01-28T06:23:56;99775.28;;;0.77;100.00
66176;BME280;52977;44.816;20.538;2023-01-28T06:26:22;99788.97;;;0.76;100.00
66176;BME280;52977;44.816;20.538;2023-01-28T06:28:48;99772.19;;;0.63;100.00
66176;BME280;52977;44.816;20.538;2023-01-28T06:31:14;99767.69;;;0.69;100.00
66176;BME280;52977;44.816;20.538;2023-01-28T06:33:39;99773.38;;;0.45;100.00
66176;BME280;52977;44.816;20.538;2023-01-28T06:36:06;99784.84;;;0.63;100.00
66176;BME280;52977;44.816;20.538;2023-01-28T06:38:32;99790.22;;;0.63;100.00
66176;BME280;52977;44.816;20.538;2023-01-28T06:40:59;99789.00;;;0.81;100.00
66176;BME280;52977;44.816;20.538;2023-01-28T06:43:25;99758.72;;;0.58;100.00
66176;BME280;52977;44.816;20.538;2023-01-28T06:45:53;99797.78;;;0.71;100.00
66176;BME280;52977;44.816;20.538;2023-01-28T06:48:20;99800.59;;;0.81;100.00
66176;BME280;52977;44.816;20.538;2023-01-28T06:50:47;99800.00;;;0.79;100.00
66176;BME280;52977;44.816;20.538;2023-01-28T06:53:14;99810.91;;;0.95;100.00
66176;BME280;52977;44.816;20.538;2023-01-28T06:55:41;99764.41;;;0.67;100.00
66176;BME280;52977;44.816;20.538;2023-01-28T06:58:07;99810.47;;;1.08;100.00
66176;BME280;52977;44.816;20.538;2023-01-28T07:00:33;99784.53;;;0.92;100.00
66176;BME280;52977;44.816;20.538;2023-01-28T07:02:59;99751.56;;;0.69;100.00
66176;BME280;52977;44.816;20.538;2023-01-28T07:05:25;99763.66;;;0.39;100.00
66176;BME280;52977;44.816;20.538;2023-01-28T07:07:51;99813.31;;;0.91;100.00
66176;BME280;52977;44.816;20.538;2023-01-28T07:10:17;99754.97;;;0.59;100.00
66176;BME280;52977;44.816;20.538;2023-01-28T07:12:43;99794.09;;;0.77;100.00
66176;BME280;52977;44.816;20.538;2023-01-28T07:15:09;99744.88;;;0.44;100.00
66176;BME280;52977;44.816;20.538;2023-01-28T07:17:43;99819.59;;;1.02;100.00
66176;BME280;52977;44.816;20.538;2023-01-28T07:20:13;99819.00;;;1.00;100.00
66176;BME280;52977;44.816;20.538;2023-01-28T07:22:43;99778.75;;;0.73;100.00
66176;BME280;52977;44.816;20.538;2023-01-28T07:25:11;99830.03;;;0.98;100.00
66176;BME280;52977;44.816;20.538;2023-01-28T07:27:37;99808.91;;;0.80;100.00
66176;BME280;52977;44.816;20.538;2023-01-28T07:30:04;99836.78;;;1.01;100.00
66176;BME280;52977;44.816;20.538;2023-01-28T07:32:30;99768.59;;;0.53;100.00
66176;BME280;52977;44.816;20.538;2023-01-28T07:34:56;99847.47;;;0.96;100.00
66176;BME280;52977;44.816;20.538;2023-01-28T07:37:23;99812.13;;;0.82;100.00
66176;BME280;52977;44.816;20.538;2023-01-28T07:39:49;99822.88;;;0.82;100.00
66176;BME280;52977;44.816;20.538;2023-01-28T07:42:15;99839.06;;;0.87;100.00
66176;BME280;52977;44.816;20.538;2023-01-28T07:44:46;99794.69;;;0.57;100.00
66176;BME280;52977;44.816;20.538;2023-01-28T07:47:11;99816.84;;;0.70;100.00
66176;BME280;52977;44.816;20.538;2023-01-28T07:49:38;99777.22;;;0.55;100.00
66176;BME280;52977;44.816;20.538;2023-01-28T07:52:07;99866.28;;;0.96;100.00
66176;BME280;52977;44.816;20.538;2023-01-28T07:54:34;99846.72;;;0.73;100.00
66176;BME280;52977;44.816;20.538;2023-01-28T07:57:00;99868.13;;;0.90;100.00
66176;BME280;52977;44.816;20.538;2023-01-28T07:59:26;99800.78;;;0.47;100.00
66176;BME280;52977;44.816;20.538;2023-01-28T08:01:52;99852.19;;;0.56;100.00
66176;BME280;52977;44.816;20.538;2023-01-28T08:04:19;99874.28;;;0.91;100.00
66176;BME280;52977;44.816;20.538;2023-01-28T08:06:45;99861.22;;;0.99;100.00
66176;BME280;52977;44.816;20.538;2023-01-28T08:09:12;99872.63;;;1.12;100.00
66176;BME280;52977;44.816;20.538;2023-01-28T08:11:38;99851.41;;;1.15;100.00
66176;BME280;52977;44.816;20.538;2023-01-28T08:14:05;99892.25;;;1.12;100.00
66176;BME280;52977;44.816;20.538;2023-01-28T08:16:31;99851.69;;;0.87;100.00
66176;BME280;52977;44.816;20.538;2023-01-28T08:18:57;99879.84;;;1.06;100.00
66176;BME280;52977;44.816;20.538;2023-01-28T08:21:23;99828.81;;;0.57;100.00
66176;BME280;52977;44.816;20.538;2023-01-28T08:23:50;99877.63;;;0.98;100.00
66176;BME280;52977;44.816;20.538;2023-01-28T08:26:16;99883.28;;;1.01;100.00
66176;BME280;52977;44.816;20.538;2023-01-28T08:28:41;99832.38;;;0.40;100.00
66176;BME280;52977;44.816;20.538;2023-01-28T08:31:08;99886.22;;;1.00;100.00
66176;BME280;52977;44.816;20.538;2023-01-28T08:33:33;99892.91;;;0.70;100.00
66176;BME280;52977;44.816;20.538;2023-01-28T08:36:02;99850.63;;;0.60;100.00
66176;BME280;52977;44.816;20.538;2023-01-28T08:38:29;99880.56;;;0.96;100.00
66176;BME280;52977;44.816;20.538;2023-01-28T08:40:55;99894.59;;;1.04;100.00
66176;BME280;52977;44.816;20.538;2023-01-28T08:43:22;99866.41;;;1.06;100.00
66176;BME280;52977;44.816;20.538;2023-01-28T08:45:50;99843.66;;;0.92;100.00
66176;BME280;52977;44.816;20.538;2023-01-28T08:48:18;99860.97;;;1.01;100.00
66176;BME280;52977;44.816;20.538;2023-01-28T08:50:44;99900.06;;;1.14;100.00
66176;BME280;52977;44.816;20.538;2023-01-28T08:53:14;99882.56;;;1.11;100.00
66176;BME280;52977;44.816;20.538;2023-01-28T08:55:40;99897.84;;;1.38;100.00
66176;BME280;52977;44.816;20.538;2023-01-28T08:58:11;99884.19;;;1.12;100.00
66176;BME280;52977;44.816;20.538;2023-01-28T09:00:38;99836.84;;;0.79;100.00
66176;BME280;52977;44.816;20.538;2023-01-28T09:03:04;99906.19;;;1.36;100.00
66176;BME280;52977;44.816;20.538;2023-01-28T09:05:31;99908.63;;;1.38;100.00
66176;BME280;52977;44.816;20.538;2023-01-28T09:08:07;99782.44;;;0.66;100.00
66176;BME280;52977;44.816;20.538;2023-01-28T09:10:34;99907.56;;;1.39;100.00
66176;BME280;52977;44.816;20.538;2023-01-28T09:13:11;99912.41;;;1.42;100.00
66176;BME280;52977;44.816;20.538;2023-01-28T09:15:38;99886.81;;;1.34;100.00
66176;BME280;52977;44.816;20.538;2023-01-28T09:18:04;99912.16;;;1.44;100.00
66176;BME280;52977;44.816;20.538;2023-01-28T09:20:31;99903.34;;;1.48;100.00
66176;BME280;52977;44.816;20.538;2023-01-28T09:22:58;99911.47;;;1.59;100.00
66176;BME280;52977;44.816;20.538;2023-01-28T09:25:24;99917.31;;;1.45;100.00
66176;BME280;52977;44.816;20.538;2023-01-28T09:27:50;99911.94;;;1.50;100.00
66176;BME280;52977;44.816;20.538;2023-01-28T09:30:16;99857.44;;;1.28;100.00
66176;BME280;52977;44.816;20.538;2023-01-28T09:32:42;99904.41;;;1.47;100.00
66176;BME280;52977;44.816;20.538;2023-01-28T09:35:08;99902.09;;;1.29;100.00
66176;BME280;52977;44.816;20.538;2023-01-28T09:37:35;99919.88;;;1.30;100.00
66176;BME280;52977;44.816;20.538;2023-01-28T09:40:02;99908.53;;;1.28;100.00
66176;BME280;52977;44.816;20.538;2023-01-28T09:47:40;99919.38;;;1.38;100.00
66176;BME280;52977;44.816;20.538;2023-01-28T09:50:33;99835.72;;;1.02;100.00
66176;BME280;52977;44.816;20.538;2023-01-28T09:53:21;99909.13;;;1.35;100.00
66176;BME280;52977;44.816;20.538;2023-01-28T09:55:54;99920.44;;;1.69;100.00
66176;BME280;52977;44.816;20.538;2023-01-28T09:58:20;99891.72;;;1.43;100.00
66176;BME280;52977;44.816;20.538;2023-01-28T10:03:59;99918.81;;;1.63;100.00
66176;BME280;52977;44.816;20.538;2023-01-28T10:17:42;99879.19;;;0.94;100.00
66176;BME280;52977;44.816;20.538;2023-01-28T10:22:44;99923.75;;;1.44;100.00
66176;BME280;52977;44.816;20.538;2023-01-28T10:25:22;99936.53;;;1.32;100.00
66176;BME280;52977;44.816;20.538;2023-01-28T10:27:50;99885.41;;;0.72;100.00
66176;BME280;52977;44.816;20.538;2023-01-28T10:30:30;99874.88;;;0.93;100.00
66176;BME280;52977;44.816;20.538;2023-01-28T10:33:15;99919.81;;;1.25;100.00
66176;BME280;52977;44.816;20.538;2023-01-28T10:35:42;99903.25;;;0.83;100.00
66176;BME280;52977;44.816;20.538;2023-01-28T10:38:12;99900.38;;;0.90;100.00
66176;BME280;52977;44.816;20.538;2023-01-28T10:40:40;99907.03;;;0.82;100.00
66176;BME280;52977;44.816;20.538;2023-01-28T10:43:06;99927.59;;;0.99;100.00
66176;BME280;52977;44.816;20.538;2023-01-28T10:48:25;99921.97;;;1.00;100.00
66176;BME280;52977;44.816;20.538;2023-01-28T10:50:55;99916.25;;;0.92;100.00
66176;BME280;52977;44.816;20.538;2023-01-28T10:53:34;99922.44;;;0.92;100.00
66176;BME280;52977;44.816;20.538;2023-01-28T10:56:02;99911.47;;;0.72;100.00
66176;BME280;52977;44.816;20.538;2023-01-28T10:58:30;99917.28;;;0.85;100.00
66176;BME280;52977;44.816;20.538;2023-01-28T11:01:00;99885.16;;;0.74;100.00
66176;BME280;52977;44.816;20.538;2023-01-28T11:03:28;99849.25;;;0.36;100.00
66176;BME280;52977;44.816;20.538;2023-01-28T11:05:56;99920.22;;;0.84;100.00
66176;BME280;52977;44.816;20.538;2023-01-28T11:08:25;99914.63;;;0.91;100.00
66176;BME280;52977;44.816;20.538;2023-01-28T11:10:52;99919.44;;;0.89;100.00
66176;BME280;52977;44.816;20.538;2023-01-28T11:16:15;99925.53;;;0.79;100.00
66176;BME280;52977;44.816;20.538;2023-01-28T11:18:49;99929.00;;;0.79;100.00
66176;BME280;52977;44.816;20.538;2023-01-28T11:21:28;99909.75;;;0.88;100.00
66176;BME280;52977;44.816;20.538;2023-01-28T11:23:58;99914.94;;;0.94;100.00
66176;BME280;52977;44.816;20.538;2023-01-28T11:26:32;99912.78;;;0.69;100.00
66176;BME280;52977;44.816;20.538;2023-01-28T11:29:00;99929.78;;;0.75;100.00
66176;BME280;52977;44.816;20.538;2023-01-28T11:31:26;99921.06;;;0.90;100.00
66176;BME280;52977;44.816;20.538;2023-01-28T11:33:54;99918.84;;;0.81;100.00
66176;BME280;52977;44.816;20.538;2023-01-28T11:36:24;99908.19;;;0.70;100.00
66176;BME280;52977;44.816;20.538;2023-01-28T11:38:58;99911.94;;;0.91;100.00
66176;BME280;52977;44.816;20.538;2023-01-28T11:41:32;99913.09;;;1.00;100.00
66176;BME280;52977;44.816;20.538;2023-01-28T11:43:59;99915.72;;;0.95;100.00
66176;BME280;52977;44.816;20.538;2023-01-28T11:46:48;99916.16;;;1.09;100.00
66176;BME280;52977;44.816;20.538;2023-01-28T11:55:42;99902.25;;;0.90;100.00
66176;BME280;52977;44.816;20.538;2023-01-28T12:01:11;99918.53;;;1.05;100.00
66176;BME280;52977;44.816;20.538;2023-01-28T12:06:35;99909.00;;;0.92;100.00
66176;BME280;52977;44.816;20.538;2023-01-28T12:09:12;99915.25;;;0.98;100.00
66176;BME280;52977;44.816;20.538;2023-01-28T12:11:48;99916.97;;;1.09;100.00
66176;BME280;52977;44.816;20.538;2023-01-28T12:23:34;99920.19;;;1.06;100.00
66176;BME280;52977;44.816;20.538;2023-01-28T12:26:35;99831.00;;;0.60;100.00
66176;BME280;52977;44.816;20.538;2023-01-28T12:29:30;99926.00;;;0.98;100.00
66176;BME280;52977;44.816;20.538;2023-01-28T12:38:08;99925.38;;;0.91;100.00
66176;BME280;52977;44.816;20.538;2023-01-28T12:49:20;99880.91;;;0.56;100.00
66176;BME280;52977;44.816;20.538;2023-01-28T12:54:30;99886.78;;;0.53;100.00
66176;BME280;52977;44.816;20.538;2023-01-28T12:56:59;99873.69;;;0.34;100.00
66176;BME280;52977;44.816;20.538;2023-01-28T13:04:44;99937.06;;;0.79;100.00
66176;BME280;52977;44.816;20.538;2023-01-28T13:07:17;99941.56;;;0.74;100.00
66176;BME280;52977;44.816;20.538;2023-01-28T13:12:39;99949.53;;;0.63;100.00
66176;BME280;52977;44.816;20.538;2023-01-28T13:15:11;99940.22;;;0.49;100.00
66176;BME280;52977;44.816;20.538;2023-01-28T13:17:39;99925.22;;;0.53;100.00
66176;BME280;52977;44.816;20.538;2023-01-28T13:23:01;99898.47;;;0.41;100.00
66176;BME280;52977;44.816;20.538;2023-01-28T13:25:28;99963.22;;;0.62;100.00
66176;BME280;52977;44.816;20.538;2023-01-28T13:30:27;99959.59;;;0.73;100.00
66176;BME280;52977;44.816;20.538;2023-01-28T13:33:01;99902.44;;;0.16;100.00
66176;BME280;52977;44.816;20.538;2023-01-28T13:35:32;99962.44;;;0.66;100.00
66176;BME280;52977;44.816;20.538;2023-01-28T13:38:06;99909.66;;;0.33;100.00
66176;BME280;52977;44.816;20.538;2023-01-28T13:40:33;99954.91;;;0.63;100.00
66176;BME280;52977;44.816;20.538;2023-01-28T13:43:05;99968.53;;;0.79;100.00
66176;BME280;52977;44.816;20.538;2023-01-28T13:46:32;99954.00;;;1.02;100.00
66176;BME280;52977;44.816;20.538;2023-01-28T13:48:53;99955.88;;;1.01;100.00
66176;BME280;52977;44.816;20.538;2023-01-28T13:51:24;99977.84;;;1.21;100.00
66176;BME280;52977;44.816;20.538;2023-01-28T13:54:13;99983.00;;;1.00;100.00
66176;BME280;52977;44.816;20.538;2023-01-28T13:59:57;99988.13;;;1.01;100.00
66176;BME280;52977;44.816;20.538;2023-01-28T14:06:01;99998.72;;;1.35;100.00
66176;BME280;52977;44.816;20.538;2023-01-28T14:13:46;99996.22;;;1.29;100.00
66176;BME280;52977;44.816;20.538;2023-01-28T14:16:35;100008.47;;;1.42;100.00
66176;BME280;52977;44.816;20.538;2023-01-28T14:19:10;100003.59;;;1.39;100.00
66176;BME280;52977;44.816;20.538;2023-01-28T14:21:37;99974.59;;;1.18;100.00
66176;BME280;52977;44.816;20.538;2023-01-28T14:24:03;99972.47;;;1.21;100.00
66176;BME280;52977;44.816;20.538;2023-01-28T14:27:15;99955.34;;;1.05;100.00
66176;BME280;52977;44.816;20.538;2023-01-28T14:32:48;100007.09;;;1.39;100.00
66176;BME280;52977;44.816;20.538;2023-01-28T14:35:21;100017.84;;;1.39;100.00
66176;BME280;52977;44.816;20.538;2023-01-28T14:37:50;99935.13;;;0.97;100.00
66176;BME280;52977;44.816;20.538;2023-01-28T14:40:17;100008.31;;;1.53;100.00
66176;BME280;52977;44.816;20.538;2023-01-28T14:42:47;100020.16;;;1.58;100.00
66176;BME280;52977;44.816;20.538;2023-01-28T14:56:41;100026.19;;;1.65;100.00
66176;BME280;52977;44.816;20.538;2023-01-28T14:59:25;99816.78;;;0.15;100.00
66176;BME280;52977;44.816;20.538;2023-01-28T15:01:56;100028.06;;;1.37;100.00
66176;BME280;52977;44.816;20.538;2023-01-28T15:04:28;99959.06;;;0.98;100.00
66176;BME280;52977;44.816;20.538;2023-01-28T15:06:54;99957.06;;;0.89;100.00
66176;BME280;52977;44.816;20.538;2023-01-28T15:09:21;100027.94;;;1.27;100.00
66176;BME280;52977;44.816;20.538;2023-01-28T15:11:50;100025.84;;;1.34;100.00
66176;BME280;52977;44.816;20.538;2023-01-28T15:14:34;100037.34;;;1.51;100.00
66176;BME280;52977;44.816;20.538;2023-01-28T15:17:01;100029.88;;;1.59;100.00
66176;BME280;52977;44.816;20.538;2023-01-28T15:19:34;100032.13;;;1.67;100.00
66176;BME280;52977;44.816;20.538;2023-01-28T15:22:05;100015.28;;;1.49;100.00